Time;durP1;ratioP1;P1;durP2;ratioP2;P2;SDS_P1;SDS_P2;PMS_P1;PMS_P2;Temp;Humidity;BMP_temperature;BMP_pressure;BME280_temperature;BME280_humidity;BME280_pressure;Samples;Min_cycle;Max_cycle;Signal;HPM_P1;HPM_P2
2022/06/29 00:00:25;;;;;;;5.20;3.85;;;14.80;99.90;;;;;;5028053;28;20042;-73
2022/06/29 00:02:52;;;;;;;5.90;4.18;;;14.80;99.90;;;;;;5037324;28;20076;-73
2022/06/29 00:05:21;;;;;;;5.50;4.30;;;14.70;99.90;;;;;;5030974;28;20076;-73
2022/06/29 00:07:47;;;;;;;6.18;4.43;;;14.70;99.90;;;;;;5019063;28;20109;-73
2022/06/29 00:10:15;;;;;;;6.55;4.10;;;14.70;99.90;;;;;;5040775;28;20041;-73
2022/06/29 00:12:42;;;;;;;6.70;4.30;;;14.60;99.90;;;;;;5014093;28;20033;-73
2022/06/29 00:15:09;;;;;;;7.60;3.90;;;14.60;99.90;;;;;;5030870;28;20452;-73
2022/06/29 00:17:35;;;;;;;6.53;4.15;;;14.60;99.90;;;;;;5016168;28;20040;-72
2022/06/29 00:20:04;;;;;;;6.20;3.70;;;14.60;99.90;;;;;;5003152;28;20037;-73
2022/06/29 00:22:30;;;;;;;4.82;4.32;;;14.50;99.90;;;;;;5016987;28;20069;-73
2022/06/29 00:24:56;;;;;;;5.22;3.63;;;14.50;99.90;;;;;;5027213;28;20056;-73
2022/06/29 00:27:22;;;;;;;5.18;3.70;;;14.50;99.90;;;;;;5011853;28;20585;-73
2022/06/29 00:29:49;;;;;;;6.32;3.63;;;14.50;99.90;;;;;;5035301;28;20070;-73
2022/06/29 00:32:14;;;;;;;19.75;4.07;;;14.50;99.90;;;;;;5029073;28;20124;-73
2022/06/29 00:34:43;;;;;;;4.78;3.67;;;14.50;99.90;;;;;;5009904;28;20133;-73
2022/06/29 00:37:09;;;;;;;6.80;4.13;;;14.40;99.90;;;;;;5027817;28;20088;-73
2022/06/29 00:39:34;;;;;;;7.90;3.80;;;14.40;99.90;;;;;;5012674;28;20076;-73
2022/06/29 00:42:01;;;;;;;3.78;3.42;;;14.40;99.90;;;;;;4989222;28;20041;-73
2022/06/29 00:44:27;;;;;;;3.97;3.55;;;14.40;99.90;;;;;;5011283;28;20042;-72
2022/06/29 00:46:55;;;;;;;4.65;3.80;;;14.40;99.90;;;;;;5032510;28;20094;-73
2022/06/29 00:49:22;;;;;;;7.13;3.85;;;14.30;99.90;;;;;;5015931;28;20104;-73
2022/06/29 00:51:50;;;;;;;5.05;3.90;;;14.30;99.90;;;;;;5017453;28;20037;-73
2022/06/29 00:54:25;;;;;;;6.47;4.25;;;14.30;99.90;;;;;;5039781;28;20092;-73
2022/06/29 00:56:51;;;;;;;7.05;4.22;;;14.30;99.90;;;;;;5036443;28;20454;-73
2022/06/29 00:59:24;;;;;;;8.40;3.90;;;14.30;99.90;;;;;;5033005;28;20116;-73
2022/06/29 01:01:51;;;;;;;7.20;4.20;;;14.20;99.90;;;;;;5011866;28;20388;-73
2022/06/29 01:04:17;;;;;;;5.60;4.28;;;14.20;99.90;;;;;;5006156;28;20064;-73
2022/06/29 01:06:43;;;;;;;5.72;3.60;;;14.20;99.90;;;;;;4999746;28;20064;-73
2022/06/29 01:09:09;;;;;;;5.22;4.07;;;14.20;99.90;;;;;;5031879;28;20045;-73
2022/06/29 01:11:35;;;;;;;8.05;4.30;;;14.20;99.90;;;;;;4998938;28;20689;-73
2022/06/29 01:14:01;;;;;;;6.18;4.60;;;14.10;99.90;;;;;;5035536;28;20438;-73
2022/06/29 01:16:27;;;;;;;8.20;4.50;;;14.10;99.90;;;;;;5001605;28;20042;-73
2022/06/29 01:18:53;;;;;;;5.13;4.60;;;14.10;99.90;;;;;;5034399;28;20121;-73
2022/06/29 01:21:20;;;;;;;6.20;4.35;;;14.00;99.90;;;;;;5032098;28;20038;-73
2022/06/29 01:23:46;;;;;;;7.85;4.50;;;14.00;99.90;;;;;;5004958;28;20060;-73
2022/06/29 01:26:12;;;;;;;10.77;4.80;;;14.00;99.90;;;;;;5023869;28;20025;-73
2022/06/29 01:28:46;;;;;;;5.22;4.10;;;14.00;99.90;;;;;;5021477;28;20131;-73
2022/06/29 01:31:19;;;;;;;5.88;4.88;;;14.00;99.90;;;;;;5028654;28;20045;-74
2022/06/29 01:33:46;;;;;;;6.43;4.68;;;14.00;99.90;;;;;;5025386;28;20402;-74
2022/06/29 01:36:14;;;;;;;6.60;5.05;;;13.90;99.90;;;;;;4998721;28;20053;-73
2022/06/29 01:38:40;;;;;;;6.05;4.95;;;13.90;99.90;;;;;;5055038;28;20115;-74
2022/06/29 01:41:08;;;;;;;8.25;4.53;;;13.90;99.90;;;;;;5000410;28;20493;-73
2022/06/29 01:43:34;;;;;;;8.20;5.07;;;13.90;99.90;;;;;;5004808;28;20379;-73
2022/06/29 01:46:00;;;;;;;5.72;4.80;;;13.90;99.90;;;;;;5024403;28;20044;-73
2022/06/29 01:48:26;;;;;;;7.05;5.25;;;13.90;99.90;;;;;;5019411;28;20403;-73
2022/06/29 01:50:53;;;;;;;9.98;5.35;;;13.90;99.90;;;;;;5013377;28;20172;-73
2022/06/29 01:53:19;;;;;;;8.25;6.15;;;13.80;99.90;;;;;;5009071;28;20057;-73
2022/06/29 01:55:45;;;;;;;10.00;6.35;;;13.80;99.90;;;;;;5010134;28;20041;-73
2022/06/29 01:58:11;;;;;;;9.85;6.20;;;13.80;99.90;;;;;;5004974;28;20044;-73
2022/06/29 02:00:37;;;;;;;18.48;8.95;;;13.80;99.90;;;;;;5036283;28;20162;-73
2022/06/29 02:03:03;;;;;;;17.92;9.65;;;13.80;99.90;;;;;;4990426;28;20050;-73
2022/06/29 02:05:28;;;;;;;19.00;10.77;;;13.80;99.90;;;;;;5024846;28;20049;-73
2022/06/29 02:07:54;;;;;;;17.80;10.25;;;13.70;99.90;;;;;;5015276;28;20113;-73
2022/06/29 02:10:20;;;;;;;17.75;10.85;;;13.70;99.90;;;;;;5019490;28;20030;-73
2022/06/29 02:12:45;;;;;;;17.45;10.00;;;13.70;99.90;;;;;;5009809;28;20041;-73
2022/06/29 02:15:11;;;;;;;14.32;8.95;;;13.70;99.90;;;;;;5005427;28;20056;-73
2022/06/29 02:17:37;;;;;;;17.50;10.65;;;13.60;99.90;;;;;;5039884;28;20033;-73
2022/06/29 02:20:03;;;;;;;16.08;9.95;;;13.60;99.90;;;;;;5034250;28;20042;-73
2022/06/29 02:22:29;;;;;;;16.55;11.32;;;13.60;99.90;;;;;;5003124;28;20049;-73
2022/06/29 02:24:55;;;;;;;17.30;11.75;;;13.60;99.90;;;;;;5027141;28;20067;-73
2022/06/29 02:27:21;;;;;;;16.20;10.35;;;13.60;99.90;;;;;;5027023;28;20087;-73
2022/06/29 02:29:47;;;;;;;16.27;11.23;;;13.50;99.90;;;;;;5010220;28;20045;-73
2022/06/29 02:34:56;;;;;;;21.85;12.55;;;13.50;99.90;;;;;;5010293;28;20041;-73
2022/06/29 02:37:22;;;;;;;25.00;14.18;;;13.50;99.90;;;;;;5012787;28;20060;-73
2022/06/29 02:39:48;;;;;;;28.52;17.08;;;13.50;99.90;;;;;;5022500;28;20183;-73
2022/06/29 02:42:14;;;;;;;32.30;18.20;;;13.50;99.90;;;;;;5020087;28;20044;-73
2022/06/29 02:44:40;;;;;;;33.90;19.25;;;13.40;99.90;;;;;;5008573;28;20038;-73
2022/06/29 02:47:07;;;;;;;43.67;24.23;;;13.40;99.90;;;;;;5017909;28;20026;-73
2022/06/29 02:49:33;;;;;;;43.35;24.38;;;13.40;99.90;;;;;;5038815;28;20060;-73
2022/06/29 02:51:59;;;;;;;37.47;21.48;;;13.40;99.90;;;;;;4993895;28;20518;-73
2022/06/29 02:54:25;;;;;;;25.65;16.67;;;13.40;99.90;;;;;;4987292;28;20638;-73
2022/06/29 02:56:53;;;;;;;26.88;16.75;;;13.30;99.90;;;;;;5030411;28;20045;-73
2022/06/29 02:59:19;;;;;;;23.25;15.48;;;13.40;99.90;;;;;;5027423;28;20056;-73
2022/06/29 03:01:45;;;;;;;23.13;14.65;;;13.30;99.90;;;;;;5011201;28;20056;-73
2022/06/29 03:04:11;;;;;;;18.35;13.77;;;13.30;99.90;;;;;;5005808;28;20042;-73
2022/06/29 03:06:37;;;;;;;18.75;12.15;;;13.30;99.90;;;;;;5026887;28;20052;-73
2022/06/29 03:09:03;;;;;;;13.73;10.10;;;13.30;99.90;;;;;;5010606;28;20033;-73
2022/06/29 03:11:29;;;;;;;14.68;10.82;;;13.30;99.90;;;;;;5026386;28;20048;-73
2022/06/29 03:13:55;;;;;;;11.55;9.90;;;13.30;99.90;;;;;;5020213;28;20041;-73
2022/06/29 03:16:20;;;;;;;11.85;9.10;;;13.30;99.90;;;;;;5044962;28;21447;-73
2022/06/29 03:18:46;;;;;;;11.55;8.05;;;13.30;99.90;;;;;;5015309;28;20042;-73
2022/06/29 03:21:12;;;;;;;10.15;8.18;;;13.20;99.90;;;;;;5030060;28;20045;-73
2022/06/29 03:23:38;;;;;;;9.73;7.70;;;13.20;99.90;;;;;;5018580;28;20037;-74
2022/06/29 03:26:04;;;;;;;9.18;8.13;;;13.20;99.90;;;;;;5044219;28;20468;-73
2022/06/29 03:28:29;;;;;;;9.07;7.55;;;13.20;99.90;;;;;;5002713;28;20045;-73
2022/06/29 03:30:55;;;;;;;10.63;7.80;;;13.20;99.90;;;;;;5024329;28;20041;-74
2022/06/29 03:33:21;;;;;;;11.93;8.02;;;13.20;99.90;;;;;;5012932;28;20044;-73
2022/06/29 03:35:48;;;;;;;11.82;7.75;;;13.20;99.90;;;;;;5009732;28;20041;-74
2022/06/29 03:38:13;;;;;;;10.57;8.23;;;13.20;99.90;;;;;;5034942;28;20149;-74
2022/06/29 03:40:39;;;;;;;8.13;7.25;;;13.20;99.90;;;;;;5000274;28;20124;-74
2022/06/29 03:43:05;;;;;;;9.40;8.25;;;13.20;99.90;;;;;;5003219;28;20060;-74
2022/06/29 03:45:31;;;;;;;14.63;7.47;;;13.20;99.90;;;;;;4981887;28;20413;-73
2022/06/29 03:47:56;;;;;;;8.90;7.28;;;13.20;99.90;;;;;;4986074;28;20296;-73
2022/06/29 03:50:22;;;;;;;8.40;7.63;;;13.20;99.90;;;;;;5034912;28;20034;-74
2022/06/29 03:52:49;;;;;;;8.65;7.85;;;13.20;99.90;;;;;;5005048;28;20565;-74
2022/06/29 03:55:15;;;;;;;8.90;8.00;;;13.20;99.90;;;;;;5015383;28;20095;-73
2022/06/29 03:57:41;;;;;;;8.90;8.10;;;13.20;99.90;;;;;;5036619;28;20124;-74
2022/06/29 04:00:09;;;;;;;9.18;7.90;;;13.20;99.90;;;;;;5012581;28;20077;-73
2022/06/29 04:02:36;;;;;;;9.05;7.47;;;13.20;99.90;;;;;;5005359;28;20065;-73
2022/06/29 04:05:04;;;;;;;9.70;7.95;;;13.20;99.90;;;;;;4997394;28;20037;-73
2022/06/29 04:07:30;;;;;;;8.45;7.63;;;13.20;99.90;;;;;;5005241;28;20395;-74
2022/06/29 04:09:59;;;;;;;8.95;7.13;;;13.30;99.90;;;;;;5019700;28;20045;-73
2022/06/29 04:12:32;;;;;;;8.63;7.75;;;13.20;99.90;;;;;;4999360;28;20045;-73
2022/06/29 04:14:58;;;;;;;9.30;7.68;;;13.30;99.90;;;;;;5030484;28;20076;-74
2022/06/29 04:17:24;;;;;;;9.45;7.78;;;13.30;99.90;;;;;;5002222;28;20057;-74
2022/06/29 04:19:52;;;;;;;9.25;7.70;;;13.30;99.90;;;;;;5029819;28;20556;-74
2022/06/29 04:22:19;;;;;;;8.88;7.57;;;13.30;99.90;;;;;;5029285;28;20071;-74
2022/06/29 04:24:45;;;;;;;8.82;7.90;;;13.30;99.90;;;;;;5035723;28;20045;-73
2022/06/29 04:27:11;;;;;;;9.65;8.65;;;13.30;99.90;;;;;;5016504;28;20122;-73
2022/06/29 04:29:37;;;;;;;8.60;7.68;;;13.30;99.90;;;;;;5025777;28;20118;-73
2022/06/29 04:32:03;;;;;;;9.20;7.97;;;13.30;99.90;;;;;;5018735;28;20048;-73
2022/06/29 04:34:29;;;;;;;9.75;8.75;;;13.40;99.90;;;;;;5012075;28;20434;-73
2022/06/29 04:36:55;;;;;;;8.48;7.68;;;13.40;99.90;;;;;;5016945;28;20095;-73
2022/06/29 04:39:20;;;;;;;8.68;7.70;;;13.40;99.90;;;;;;5020298;28;20037;-73
2022/06/29 04:41:47;;;;;;;8.93;8.02;;;13.40;99.90;;;;;;5022121;28;20038;-73
2022/06/29 04:44:13;;;;;;;10.43;8.75;;;13.40;99.90;;;;;;5015077;28;20092;-73
2022/06/29 04:46:39;;;;;;;9.00;8.10;;;13.40;99.90;;;;;;5023767;28;20026;-73
2022/06/29 04:49:05;;;;;;;9.32;8.43;;;13.40;99.90;;;;;;5001612;28;20561;-73
2022/06/29 04:51:32;;;;;;;9.90;8.90;;;13.40;99.90;;;;;;4998899;28;20030;-73
2022/06/29 04:53:59;;;;;;;10.50;8.82;;;13.40;99.90;;;;;;5023138;28;20423;-73
2022/06/29 04:56:29;;;;;;;10.98;8.85;;;13.50;99.90;;;;;;4994087;28;20049;-74
2022/06/29 04:58:55;;;;;;;13.50;10.30;;;13.50;99.90;;;;;;5032940;28;20057;-73
2022/06/29 05:01:22;;;;;;;13.52;10.73;;;13.50;99.90;;;;;;5013310;28;20156;-73
2022/06/29 05:03:48;;;;;;;15.27;10.57;;;13.50;99.90;;;;;;4996410;28;20414;-73
2022/06/29 05:06:14;;;;;;;13.80;10.82;;;13.50;99.90;;;;;;5003485;28;20025;-73
2022/06/29 05:08:40;;;;;;;19.83;10.82;;;13.60;99.90;;;;;;5006269;28;20493;-73
2022/06/29 05:11:06;;;;;;;13.90;10.00;;;13.60;99.90;;;;;;4999978;28;20033;-73
2022/06/29 05:13:32;;;;;;;15.88;10.45;;;13.60;99.90;;;;;;5021175;28;20465;-73
2022/06/29 05:15:57;;;;;;;14.32;9.75;;;13.60;99.90;;;;;;5026195;28;20067;-73
2022/06/29 05:18:24;;;;;;;12.73;9.85;;;13.70;99.90;;;;;;5017148;28;20037;-73
2022/06/29 05:20:50;;;;;;;11.63;9.45;;;13.70;99.90;;;;;;5021608;28;20126;-73
2022/06/29 05:23:15;;;;;;;12.98;10.52;;;13.80;99.90;;;;;;5012489;28;20037;-73
2022/06/29 05:25:41;;;;;;;15.48;11.00;;;13.80;99.90;;;;;;5023944;28;20033;-73
2022/06/29 05:28:07;;;;;;;15.10;10.45;;;13.90;99.90;;;;;;4989869;28;20482;-73
2022/06/29 05:30:33;;;;;;;12.23;10.95;;;13.90;99.90;;;;;;5012462;28;20037;-73
2022/06/29 05:32:59;;;;;;;14.30;10.77;;;14.00;99.90;;;;;;5025802;28;20315;-73
2022/06/29 05:35:25;;;;;;;14.15;10.32;;;14.10;99.90;;;;;;5029293;28;20074;-73
2022/06/29 05:37:51;;;;;;;12.75;10.60;;;14.10;99.90;;;;;;5011153;28;20096;-73
2022/06/29 05:40:16;;;;;;;11.52;10.15;;;14.20;99.90;;;;;;5019443;28;20096;-73
2022/06/29 05:42:42;;;;;;;9.88;8.95;;;14.30;99.90;;;;;;5021214;28;20033;-73
2022/06/29 05:45:08;;;;;;;10.25;9.05;;;14.30;99.90;;;;;;4986602;28;20057;-72
2022/06/29 05:47:34;;;;;;;9.80;8.80;;;14.40;99.90;;;;;;5020859;28;20029;-73
2022/06/29 05:50:00;;;;;;;10.07;9.07;;;14.50;99.90;;;;;;5019351;28;20530;-73
2022/06/29 05:52:26;;;;;;;9.98;9.05;;;14.60;99.90;;;;;;5012099;28;20037;-73
2022/06/29 05:54:52;;;;;;;11.98;9.00;;;14.70;99.90;;;;;;5039722;28;20050;-73
2022/06/29 05:57:19;;;;;;;10.45;8.60;;;14.80;99.90;;;;;;5021910;28;20034;-73
2022/06/29 05:59:48;;;;;;;10.02;8.95;;;14.90;99.90;;;;;;5029899;28;20064;-73
2022/06/29 06:02:14;;;;;;;10.82;9.75;;;15.00;99.90;;;;;;5011825;28;20296;-73
2022/06/29 06:04:40;;;;;;;10.27;9.05;;;15.10;99.90;;;;;;5026812;28;20029;-73
2022/06/29 06:07:06;;;;;;;10.60;9.32;;;15.20;99.90;;;;;;5024711;28;20042;-73
2022/06/29 06:09:32;;;;;;;10.48;9.48;;;15.30;99.90;;;;;;5011365;28;20034;-73
2022/06/29 06:11:58;;;;;;;10.23;9.20;;;15.40;99.90;;;;;;5011935;28;20030;-73
2022/06/29 06:14:24;;;;;;;8.82;7.93;;;15.40;99.90;;;;;;5008836;28;20044;-73
2022/06/29 06:16:50;;;;;;;9.40;8.50;;;15.60;99.90;;;;;;5027229;28;20046;-72
2022/06/29 06:19:16;;;;;;;11.75;8.80;;;15.70;99.90;;;;;;5018125;28;20041;-73
2022/06/29 06:21:42;;;;;;;12.00;8.32;;;15.90;99.90;;;;;;5011509;28;20087;-73
2022/06/29 06:24:07;;;;;;;9.05;8.00;;;16.00;99.90;;;;;;5002739;28;20123;-72
2022/06/29 06:26:33;;;;;;;9.18;7.38;;;16.10;99.90;;;;;;5011753;28;20128;-72
2022/06/29 06:28:59;;;;;;;8.00;7.20;;;16.20;99.90;;;;;;5011460;28;20088;-72
2022/06/29 06:31:26;;;;;;;8.65;6.72;;;16.30;99.90;;;;;;5007340;28;20132;-73
2022/06/29 06:33:55;;;;;;;8.10;7.25;;;16.40;99.90;;;;;;5032344;28;20041;-73
2022/06/29 06:36:21;;;;;;;7.80;6.90;;;16.50;99.90;;;;;;5009177;28;20125;-73
2022/06/29 06:38:46;;;;;;;9.18;7.13;;;16.70;99.90;;;;;;5026428;28;20435;-73
2022/06/29 06:41:21;;;;;;;6.95;6.22;;;16.80;99.90;;;;;;5013400;28;20049;-73
2022/06/29 06:43:55;;;;;;;7.50;6.53;;;16.90;99.90;;;;;;5034575;28;20045;-72
2022/06/29 06:46:21;;;;;;;9.43;6.63;;;17.00;99.90;;;;;;5034920;28;20029;-73
2022/06/29 06:48:49;;;;;;;7.32;6.65;;;17.20;99.90;;;;;;5027306;28;20037;-73
2022/06/29 06:51:15;;;;;;;8.80;6.55;;;17.30;99.90;;;;;;5026069;28;20064;-72
2022/06/29 06:53:41;;;;;;;6.93;6.20;;;17.50;99.90;;;;;;5007247;28;20038;-73
2022/06/29 06:56:07;;;;;;;8.07;7.03;;;17.60;99.90;;;;;;5026148;28;20069;-73
2022/06/29 06:58:35;;;;;;;6.30;5.70;;;17.70;99.90;;;;;;5041508;28;20033;-72
2022/06/29 07:01:06;;;;;;;8.75;6.50;;;17.90;99.90;;;;;;5018568;28;20128;-73
2022/06/29 07:03:32;;;;;;;8.75;5.75;;;18.00;99.90;;;;;;5025193;28;20052;-73
2022/06/29 07:06:04;;;;;;;6.72;5.28;;;18.20;99.90;;;;;;5023344;28;20442;-73
2022/06/29 07:08:31;;;;;;;5.18;4.68;;;18.30;99.90;;;;;;5026657;28;20544;-73
2022/06/29 07:10:58;;;;;;;6.20;5.53;;;18.40;99.90;;;;;;5009895;28;21439;-72
2022/06/29 07:13:24;;;;;;;8.90;5.10;;;18.50;99.90;;;;;;5026426;28;20088;-72
2022/06/29 07:15:49;;;;;;;6.65;5.13;;;18.60;99.90;;;;;;4991063;28;20041;-73
2022/06/29 07:18:15;;;;;;;7.63;4.95;;;18.80;99.90;;;;;;5008239;28;20068;-72
2022/06/29 07:20:41;;;;;;;5.80;4.40;;;19.00;99.90;;;;;;5008960;28;20034;-72
2022/06/29 07:23:07;;;;;;;8.98;4.70;;;19.10;99.90;;;;;;5029607;28;20053;-72
2022/06/29 07:25:32;;;;;;;5.82;4.47;;;19.20;99.90;;;;;;5009039;28;20044;-72
2022/06/29 07:27:58;;;;;;;5.00;4.50;;;19.30;99.90;;;;;;4993104;28;20034;-72
2022/06/29 07:30:24;;;;;;;6.70;4.60;;;19.40;99.90;;;;;;5008341;28;20096;-72
2022/06/29 07:32:50;;;;;;;10.25;4.97;;;19.40;99.90;;;;;;5009235;28;20048;-72
2022/06/29 07:35:15;;;;;;;7.63;4.13;;;19.60;99.90;;;;;;4994242;28;20041;-72
2022/06/29 07:37:42;;;;;;;5.25;4.25;;;19.80;99.90;;;;;;5022922;28;20513;-72
2022/06/29 07:40:09;;;;;;;6.75;4.50;;;20.00;99.90;;;;;;4994442;28;20045;-72
2022/06/29 07:42:35;;;;;;;4.68;3.42;;;20.20;99.90;;;;;;5024655;28;20125;-72
2022/06/29 07:45:02;;;;;;;5.47;3.78;;;20.40;99.90;;;;;;5018472;28;20479;-72
2022/06/29 07:47:28;;;;;;;6.45;3.22;;;20.50;99.90;;;;;;5025614;28;20121;-72
2022/06/29 07:49:54;;;;;;;7.82;3.60;;;20.70;99.90;;;;;;5006614;28;20128;-72
2022/06/29 07:52:20;;;;;;;4.13;3.05;;;20.80;99.90;;;;;;5015917;28;20107;-72
2022/06/29 07:54:46;;;;;;;4.60;3.25;;;21.00;99.90;;;;;;5016256;28;20045;-72
2022/06/29 07:57:12;;;;;;;4.57;2.80;;;21.20;99.90;;;;;;5019347;28;20112;-72
2022/06/29 07:59:37;;;;;;;5.03;2.63;;;21.50;99.90;;;;;;5010748;28;20049;-72
2022/06/29 08:02:03;;;;;;;4.68;2.97;;;21.70;99.90;;;;;;5013595;28;20056;-72
2022/06/29 08:04:29;;;;;;;8.45;2.90;;;22.00;99.90;;;;;;5013456;28;20041;-72
2022/06/29 08:06:55;;;;;;;5.13;2.70;;;22.20;99.90;;;;;;5027545;28;20030;-72
2022/06/29 08:09:20;;;;;;;6.15;2.80;;;22.40;99.90;;;;;;5010234;28;20041;-72
2022/06/29 08:11:46;;;;;;;3.58;2.50;;;22.50;99.90;;;;;;5013897;28;20048;-73
2022/06/29 08:14:12;;;;;;;3.58;2.63;;;22.50;99.90;;;;;;5012374;28;20053;-72
2022/06/29 08:16:38;;;;;;;4.82;2.88;;;22.40;99.90;;;;;;5011995;28;20180;-72
2022/06/29 08:19:03;;;;;;;6.20;2.58;;;22.30;99.90;;;;;;5028668;28;20395;-72
2022/06/29 08:21:29;;;;;;;5.75;2.25;;;22.20;99.90;;;;;;4995861;28;20049;-72
2022/06/29 08:23:55;;;;;;;5.10;2.70;;;22.30;99.90;;;;;;5012838;28;20044;-72
2022/06/29 08:26:20;;;;;;;7.15;2.58;;;22.40;99.90;;;;;;5027697;28;20030;-72
2022/06/29 08:28:46;;;;;;;2.92;2.20;;;22.60;99.90;;;;;;5029481;28;20490;-72
2022/06/29 08:31:12;;;;;;;4.32;2.33;;;22.70;99.90;;;;;;5012056;28;20030;-72
2022/06/29 08:33:37;;;;;;;3.45;2.30;;;22.90;99.90;;;;;;5012641;28;20064;-72
2022/06/29 08:36:03;;;;;;;3.00;2.70;;;22.90;99.90;;;;;;5010035;28;20042;-72
2022/06/29 08:38:29;;;;;;;4.72;2.40;;;23.00;99.90;;;;;;5011409;28;20531;-72
2022/06/29 08:40:56;;;;;;;4.40;3.03;;;22.90;99.90;;;;;;5024342;28;20045;-72
2022/06/29 08:43:22;;;;;;;3.38;2.50;;;22.90;99.90;;;;;;5037708;28;20107;-72
2022/06/29 08:45:49;;;;;;;5.47;2.70;;;22.80;99.90;;;;;;5008924;28;20034;-74
2022/06/29 08:48:16;;;;;;;5.63;2.55;;;22.80;99.90;;;;;;5010722;28;20174;-73
2022/06/29 08:50:43;;;;;;;5.03;2.80;;;22.90;99.90;;;;;;5000350;28;20394;-76
2022/06/29 08:53:13;;;;;;;3.17;2.55;;;23.00;99.90;;;;;;5027182;28;20083;-72
2022/06/29 08:55:46;;;;;;;4.25;2.72;;;23.20;99.90;;;;;;5011915;28;20041;-72
2022/06/29 08:58:21;;;;;;;3.55;2.80;;;23.40;99.60;;;;;;5037522;28;20080;-72
2022/06/29 09:00:49;;;;;;;6.40;2.65;;;23.60;99.80;;;;;;5023969;28;20073;-72
2022/06/29 09:03:17;;;;;;;3.63;2.60;;;23.80;99.70;;;;;;5026258;28;20049;-72
2022/06/29 09:05:54;;;;;;;7.38;2.67;;;24.00;99.70;;;;;;5027199;28;20044;-72
2022/06/29 09:08:21;;;;;;;3.75;2.50;;;24.30;99.90;;;;;;5034362;28;20034;-72
2022/06/29 09:10:47;;;;;;;4.28;2.33;;;24.50;99.30;;;;;;5010829;28;20048;-72
2022/06/29 09:13:21;;;;;;;4.10;2.40;;;24.70;98.90;;;;;;5011969;28;20723;-72
2022/06/29 09:15:47;;;;;;;3.67;2.30;;;25.00;98.40;;;;;;5009854;28;20038;-72
2022/06/29 09:18:33;;;;;;;4.45;2.42;;;25.20;98.70;;;;;;5011933;28;20041;-72
2022/06/29 09:21:05;;;;;;;4.30;2.67;;;25.40;98.20;;;;;;5036257;28;20076;-80
2022/06/29 09:23:32;;;;;;;5.97;2.90;;;25.50;97.20;;;;;;5011727;28;20116;-79
2022/06/29 09:25:58;;;;;;;2.67;2.47;;;25.60;97.20;;;;;;5011216;28;20048;-79
2022/06/29 09:28:27;;;;;;;3.95;2.47;;;25.70;96.40;;;;;;5025919;28;20160;-79
2022/06/29 09:30:54;;;;;;;4.25;2.33;;;25.80;96.10;;;;;;5007415;28;20044;-80
2022/06/29 09:33:26;;;;;;;3.35;2.72;;;26.00;95.80;;;;;;5030789;28;20051;-79
2022/06/29 09:36:17;;;;;;;4.03;2.17;;;26.10;95.40;;;;;;5028430;28;20046;-80
2022/06/29 09:38:43;;;;;;;3.95;2.78;;;26.20;95.00;;;;;;5034279;28;20045;-80
2022/06/29 09:41:12;;;;;;;2.50;2.30;;;26.20;94.90;;;;;;5009033;28;20046;-79
2022/06/29 09:43:40;;;;;;;7.15;2.50;;;26.20;94.80;;;;;;5026105;28;20084;-80
2022/06/29 09:46:07;;;;;;;7.78;2.95;;;26.10;94.40;;;;;;5019993;28;20030;-80
2022/06/29 09:48:35;;;;;;;4.03;2.60;;;26.30;95.00;;;;;;5012655;28;20072;-80
2022/06/29 09:51:30;;;;;;;4.85;3.10;;;26.30;94.60;;;;;;4994455;28;20387;-80
2022/06/29 09:53:52;;;;;;;5.38;2.80;;;26.50;93.80;;;;;;5005305;28;20080;-80
2022/06/29 09:56:19;;;;;;;5.20;3.00;;;26.40;93.80;;;;;;4992875;28;20045;-79
2022/06/29 09:58:46;;;;;;;4.90;3.40;;;26.30;93.70;;;;;;5008127;28;20045;-79
2022/06/29 10:04:00;;;;;;;5.63;2.78;;;26.10;93.90;;;;;;5022571;28;20452;-79
2022/06/29 10:06:27;;;;;;;3.60;2.88;;;25.90;94.00;;;;;;5010867;28;20191;-80
2022/06/29 10:08:53;;;;;;;3.50;2.60;;;25.80;94.30;;;;;;5011404;28;20129;-79
2022/06/29 10:14:36;;;;;;;3.05;2.35;;;25.60;94.20;;;;;;5023958;28;20457;-79
2022/06/29 10:17:23;;;;;;;6.57;2.78;;;25.50;95.20;;;;;;5016490;28;20057;-79
2022/06/29 10:20:03;;;;;;;5.53;2.60;;;25.40;94.50;;;;;;5002687;28;20050;-81
2022/06/29 10:22:29;;;;;;;4.47;2.65;;;25.30;95.10;;;;;;5010767;28;20625;-81
2022/06/29 10:25:07;;;;;;;9.35;2.85;;;25.30;95.60;;;;;;5020206;28;20045;-79
2022/06/29 10:27:33;;;;;;;3.10;2.70;;;25.30;94.30;;;;;;5024666;28;20120;-78
2022/06/29 10:30:18;;;;;;;12.48;9.05;;;25.30;94.70;;;;;;5011593;28;20125;-79
2022/06/29 10:32:44;;;;;;;8.55;7.13;;;25.50;95.10;;;;;;5027635;28;20049;-79
2022/06/29 10:35:10;;;;;;;4.60;2.60;;;25.60;94.20;;;;;;5009997;28;20041;-81
2022/06/29 10:37:51;;;;;;;7.32;2.83;;;25.70;93.30;;;;;;5047992;28;20446;-82
2022/06/29 10:40:20;;;;;;;2.75;2.38;;;25.90;94.10;;;;;;5022862;28;20450;-80
2022/06/29 10:45:54;;;;;;;4.72;2.35;;;26.00;94.10;;;;;;5022819;28;20125;-82
2022/06/29 10:48:20;;;;;;;3.45;2.90;;;26.00;94.00;;;;;;5035536;28;20044;-83
2022/06/29 10:50:47;;;;;;;3.28;2.80;;;25.90;93.90;;;;;;5023081;28;20033;-78
2022/06/29 10:53:17;;;;;;;3.70;2.70;;;25.90;94.10;;;;;;5008061;28;20628;-78
2022/06/29 10:55:52;;;;;;;20.77;15.98;;;25.70;94.40;;;;;;5017213;28;20045;-79
2022/06/29 10:58:18;;;;;;;11.70;10.05;;;25.70;94.50;;;;;;5036522;28;20041;-76
2022/06/29 11:00:51;;;;;;;7.55;6.18;;;25.50;94.50;;;;;;5010676;28;20049;-77
2022/06/29 11:03:25;;;;;;;4.28;3.20;;;25.40;94.40;;;;;;5024670;28;20038;-77
2022/06/29 11:16:58;;;;;;;5.80;3.08;;;25.30;94.80;;;;;;5028457;28;20056;-78
2022/06/29 11:19:33;;;;;;;6.60;3.00;;;25.30;95.20;;;;;;5011115;28;20510;-78
2022/06/29 11:22:15;;;;;;;6.57;3.53;;;25.30;95.30;;;;;;5011302;28;21227;-78
2022/06/29 11:24:58;;;;;;;4.00;3.60;;;25.30;95.50;;;;;;5026884;28;20038;-79
2022/06/29 11:27:37;;;;;;;4.10;3.58;;;25.40;95.00;;;;;;5021013;28;20454;-77
2022/06/29 11:30:11;;;;;;;5.28;3.83;;;25.40;95.40;;;;;;5042772;28;20037;-77
2022/06/29 11:32:43;;;;;;;5.78;3.40;;;25.40;95.80;;;;;;5018724;28;20038;-77
2022/06/29 11:35:10;;;;;;;9.25;3.65;;;25.50;96.60;;;;;;5016247;28;20063;-77
2022/06/29 11:37:36;;;;;;;4.22;3.40;;;25.80;96.60;;;;;;5029225;28;20093;-78
2022/06/29 11:40:03;;;;;;;6.72;3.47;;;26.00;95.70;;;;;;5032990;28;20398;-76
2022/06/29 11:45:20;;;;;;;4.07;3.20;;;26.50;94.20;;;;;;5035197;28;20527;-78
2022/06/29 11:47:53;;;;;;;5.50;3.55;;;26.50;93.10;;;;;;5033832;28;20120;-78
2022/06/29 11:50:20;;;;;;;8.35;3.45;;;26.60;93.20;;;;;;5010915;28;20041;-77
2022/06/29 11:52:48;;;;;;;8.63;3.53;;;26.70;92.80;;;;;;5000683;28;20062;-77
2022/06/29 11:55:14;;;;;;;9.30;4.05;;;26.70;92.60;;;;;;5024282;28;20042;-77
2022/06/29 11:57:40;;;;;;;4.07;3.45;;;26.50;92.90;;;;;;5019592;28;20091;-76
2022/06/29 12:00:08;;;;;;;4.22;3.15;;;26.50;93.00;;;;;;5020389;28;20042;-76
2022/06/29 12:03:06;;;;;;;5.10;3.33;;;26.60;94.00;;;;;;5057003;28;20522;-77
2022/06/29 12:05:32;;;;;;;4.97;3.53;;;26.60;93.20;;;;;;5042510;28;20061;-78
2022/06/29 12:08:04;;;;;;;7.03;3.33;;;26.50;93.20;;;;;;5016028;28;20034;-78
2022/06/29 12:10:37;;;;;;;8.38;3.75;;;26.40;93.50;;;;;;5018562;28;20049;-77
2022/06/29 12:13:08;;;;;;;8.27;3.60;;;26.40;94.00;;;;;;5032722;28;20045;-77
2022/06/29 12:15:34;;;;;;;6.78;4.03;;;26.30;94.00;;;;;;5029704;28;20045;-77
2022/06/29 12:18:00;;;;;;;6.38;3.90;;;26.10;93.50;;;;;;4996188;28;20173;-77
2022/06/29 12:20:26;;;;;;;9.70;3.90;;;26.00;93.10;;;;;;5041358;28;20127;-78
2022/06/29 12:22:51;;;;;;;4.10;3.70;;;26.00;93.10;;;;;;4983225;28;20487;-76
2022/06/29 12:25:19;;;;;;;9.02;3.78;;;25.90;93.00;;;;;;5022432;28;20057;-77
2022/06/29 12:27:44;;;;;;;6.93;4.00;;;25.90;93.10;;;;;;5026229;28;20167;-77
2022/06/29 12:30:10;;;;;;;4.50;3.85;;;25.90;93.10;;;;;;5020651;28;20117;-76
2022/06/29 12:32:36;;;;;;;5.35;4.22;;;26.00;93.50;;;;;;5031868;28;20029;-77
2022/06/29 12:35:02;;;;;;;4.53;4.03;;;26.00;94.40;;;;;;5015891;28;20414;-77
2022/06/29 12:37:28;;;;;;;6.03;4.30;;;26.10;94.50;;;;;;5019974;28;20089;-77
2022/06/29 12:39:54;;;;;;;5.20;3.67;;;26.20;94.50;;;;;;5026121;28;20513;-76
2022/06/29 12:42:21;;;;;;;4.80;3.85;;;26.20;94.70;;;;;;5021468;28;20155;-77
2022/06/29 12:44:47;;;;;;;7.45;4.10;;;26.10;94.20;;;;;;5017891;28;20045;-78
2022/06/29 12:47:12;;;;;;;5.00;3.55;;;26.10;93.60;;;;;;5007239;28;20046;-77
2022/06/29 12:49:38;;;;;;;6.40;3.72;;;26.20;94.10;;;;;;5009196;28;20122;-77
2022/06/29 12:52:04;;;;;;;4.82;3.22;;;26.40;94.30;;;;;;5017960;28;20048;-77
2022/06/29 12:54:30;;;;;;;5.18;3.63;;;26.40;94.30;;;;;;5019166;28;20052;-77
2022/06/29 12:56:56;;;;;;;4.28;3.25;;;26.50;94.10;;;;;;5029296;28;20128;-77
2022/06/29 12:59:21;;;;;;;6.15;3.30;;;26.60;93.80;;;;;;5021141;28;20032;-77
2022/06/29 13:01:47;;;;;;;6.45;3.80;;;26.70;93.60;;;;;;5009712;28;20107;-77
2022/06/29 13:04:13;;;;;;;5.80;3.35;;;26.80;94.00;;;;;;5046264;28;20029;-76
2022/06/29 13:06:40;;;;;;;5.68;3.65;;;27.00;93.50;;;;;;5014736;28;20147;-77
2022/06/29 13:09:05;;;;;;;4.43;3.90;;;27.10;93.30;;;;;;5015198;28;20037;-77